sensor_id;sensor_type;location;lat;lon;timestamp;pressure;altitude;pressure_sealevel;temperature;humidity
44934;BME280;30667;43.614;1.442;2023-05-11T00:00:31;100450.13;;;11.77;100.00
44934;BME280;30667;43.614;1.442;2023-05-11T00:02:57;100456.66;;;11.76;100.00
44934;BME280;30667;43.614;1.442;2023-05-11T00:05:22;100448.78;;;11.75;100.00
44934;BME280;30667;43.614;1.442;2023-05-11T00:07:48;100454.75;;;11.77;100.00
44934;BME280;30667;43.614;1.442;2023-05-11T00:10:13;100448.78;;;11.75;100.00
44934;BME280;30667;43.614;1.442;2023-05-11T00:12:38;100447.16;;;11.74;100.00
44934;BME280;30667;43.614;1.442;2023-05-11T00:15:04;100453.13;;;11.71;100.00
44934;BME280;30667;43.614;1.442;2023-05-11T00:17:30;100453.69;;;11.73;100.00
44934;BME280;30667;43.614;1.442;2023-05-11T00:19:55;100447.72;;;11.71;100.00
44934;BME280;30667;43.614;1.442;2023-05-11T00:22:21;100444.72;;;11.72;100.00
44934;BME280;30667;43.614;1.442;2023-05-11T00:24:46;100444.47;;;11.69;100.00
44934;BME280;30667;43.614;1.442;2023-05-11T00:27:11;100441.75;;;11.69;100.00
44934;BME280;30667;43.614;1.442;2023-05-11T00:29:37;100440.41;;;11.66;100.00
44934;BME280;30667;43.614;1.442;2023-05-11T00:32:02;100441.78;;;11.63;100.00
44934;BME280;30667;43.614;1.442;2023-05-11T00:34:28;100441.78;;;11.63;100.00
44934;BME280;30667;43.614;1.442;2023-05-11T00:36:53;100432.56;;;11.59;100.00
44934;BME280;30667;43.614;1.442;2023-05-11T00:39:18;100436.09;;;11.60;100.00
44934;BME280;30667;43.614;1.442;2023-05-11T00:41:44;100434.47;;;11.59;100.00
44934;BME280;30667;43.614;1.442;2023-05-11T00:44:09;100440.41;;;11.61;100.00
44934;BME280;30667;43.614;1.442;2023-05-11T00:46:36;100436.09;;;11.60;100.00
44934;BME280;30667;43.614;1.442;2023-05-11T00:49:01;100430.38;;;11.56;100.00
44934;BME280;30667;43.614;1.442;2023-05-11T00:51:27;100428.25;;;11.58;100.00
44934;BME280;30667;43.614;1.442;2023-05-11T00:53:53;100423.91;;;11.57;100.00
44934;BME280;30667;43.614;1.442;2023-05-11T00:56:18;100424.97;;;11.56;100.00
44934;BME280;30667;43.614;1.442;2023-05-11T00:58:44;100417.66;;;11.57;100.00
44934;BME280;30667;43.614;1.442;2023-05-11T01:01:10;100422.53;;;11.55;100.00
44934;BME280;30667;43.614;1.442;2023-05-11T01:03:35;100419.81;;;11.55;100.00
44934;BME280;30667;43.614;1.442;2023-05-11T01:08:42;100413.63;;;11.49;100.00
44934;BME280;30667;43.614;1.442;2023-05-11T01:13:52;100414.16;;;11.46;100.00
44934;BME280;30667;43.614;1.442;2023-05-11T01:16:21;100407.63;;;11.47;100.00
44934;BME280;30667;43.614;1.442;2023-05-11T01:18:58;100409.53;;;11.47;100.00
44934;BME280;30667;43.614;1.442;2023-05-11T01:21:29;100408.75;;;11.46;100.00
44934;BME280;30667;43.614;1.442;2023-05-11T01:32:35;100408.75;;;11.46;100.00
44934;BME280;30667;43.614;1.442;2023-05-11T01:35:21;100407.09;;;11.45;100.00
44934;BME280;30667;43.614;1.442;2023-05-11T01:37:54;100410.09;;;11.43;100.00
44934;BME280;30667;43.614;1.442;2023-05-11T01:40:23;100409.53;;;11.47;100.00
44934;BME280;30667;43.614;1.442;2023-05-11T01:43:03;100406.00;;;11.51;100.00
44934;BME280;30667;43.614;1.442;2023-05-11T01:45:32;100408.72;;;11.51;100.00
44934;BME280;30667;43.614;1.442;2023-05-11T01:48:03;100407.09;;;11.50;100.00
44934;BME280;30667;43.614;1.442;2023-05-11T01:50:30;100401.16;;;11.48;100.00
44934;BME280;30667;43.614;1.442;2023-05-11T01:52:57;100401.16;;;11.48;100.00
44934;BME280;30667;43.614;1.442;2023-05-11T01:55:24;100400.63;;;11.46;100.00
44934;BME280;30667;43.614;1.442;2023-05-11T01:57:52;100394.09;;;11.47;100.00
44934;BME280;30667;43.614;1.442;2023-05-11T02:00:17;100395.22;;;11.41;100.00
44934;BME280;30667;43.614;1.442;2023-05-11T02:02:43;100398.72;;;11.41;100.00
44934;BME280;30667;43.614;1.442;2023-05-11T02:05:20;100395.22;;;11.41;100.00
44934;BME280;30667;43.614;1.442;2023-05-11T02:07:48;100398.47;;;11.38;100.00
44934;BME280;30667;43.614;1.442;2023-05-11T02:10:15;100397.34;;;11.39;100.00
44934;BME280;30667;43.614;1.442;2023-05-11T02:12:42;100388.72;;;11.32;100.00
44934;BME280;30667;43.614;1.442;2023-05-11T02:15:09;100388.19;;;11.30;100.00
44934;BME280;30667;43.614;1.442;2023-05-11T02:17:38;100384.38;;;11.25;100.00
44934;BME280;30667;43.614;1.442;2023-05-11T02:20:05;100386.56;;;11.29;100.00
44934;BME280;30667;43.614;1.442;2023-05-11T02:22:32;100387.38;;;11.24;100.00
44934;BME280;30667;43.614;1.442;2023-05-11T02:24:59;100381.44;;;11.22;100.00
44934;BME280;30667;43.614;1.442;2023-05-11T02:27:25;100392.81;;;11.19;100.00
44934;BME280;30667;43.614;1.442;2023-05-11T02:29:50;100384.94;;;11.17;100.00
44934;BME280;30667;43.614;1.442;2023-05-11T02:32:17;100384.94;;;11.17;100.00
44934;BME280;30667;43.614;1.442;2023-05-11T02:34:59;100382.25;;;11.17;100.00
44934;BME280;30667;43.614;1.442;2023-05-11T02:37:26;100384.41;;;11.10;100.00
44934;BME280;30667;43.614;1.442;2023-05-11T02:39:57;100377.91;;;11.11;100.00
44934;BME280;30667;43.614;1.442;2023-05-11T02:42:25;100378.97;;;11.10;100.00
44934;BME280;30667;43.614;1.442;2023-05-11T02:45:00;100376.28;;;11.05;100.00
44934;BME280;30667;43.614;1.442;2023-05-11T02:47:30;100378.19;;;11.04;100.00
44934;BME280;30667;43.614;1.442;2023-05-11T02:49:59;100369.78;;;11.06;100.00
44934;BME280;30667;43.614;1.442;2023-05-11T02:52:26;100369.78;;;11.06;100.00
44934;BME280;30667;43.614;1.442;2023-05-11T02:54:53;100368.44;;;11.03;100.00
44934;BME280;30667;43.614;1.442;2023-05-11T02:57:19;100363.00;;;11.03;100.00
44934;BME280;30667;43.614;1.442;2023-05-11T02:59:45;100361.09;;;11.04;100.00
44934;BME280;30667;43.614;1.442;2023-05-11T03:02:11;100352.44;;;11.07;100.00
44934;BME280;30667;43.614;1.442;2023-05-11T03:04:38;100357.06;;;11.06;100.00
44934;BME280;30667;43.614;1.442;2023-05-11T03:07:05;100354.63;;;11.05;100.00
44934;BME280;30667;43.614;1.442;2023-05-11T03:09:31;100351.38;;;11.03;100.00
44934;BME280;30667;43.614;1.442;2023-05-11T03:11:57;100353.53;;;11.01;100.00
44934;BME280;30667;43.614;1.442;2023-05-11T03:14:23;100356.22;;;11.01;100.00
44934;BME280;30667;43.614;1.442;2023-05-11T03:16:50;100358.94;;;10.96;100.00
44934;BME280;30667;43.614;1.442;2023-05-11T03:19:16;100353.81;;;10.94;100.00
44934;BME280;30667;43.614;1.442;2023-05-11T03:21:42;100348.41;;;10.94;100.00
44934;BME280;30667;43.614;1.442;2023-05-11T03:24:08;100347.59;;;10.88;100.00
44934;BME280;30667;43.614;1.442;2023-05-11T03:26:35;100347.88;;;10.87;100.00
44934;BME280;30667;43.614;1.442;2023-05-11T03:29:01;100349.47;;;10.88;100.00
44934;BME280;30667;43.614;1.442;2023-05-11T03:31:27;100343.00;;;10.84;100.00
44934;BME280;30667;43.614;1.442;2023-05-11T03:33:53;100340.56;;;10.82;100.00
44934;BME280;30667;43.614;1.442;2023-05-11T03:36:20;100353.03;;;10.83;100.00
44934;BME280;30667;43.614;1.442;2023-05-11T03:38:47;100349.50;;;10.78;100.00
44934;BME280;30667;43.614;1.442;2023-05-11T03:41:16;100345.69;;;10.73;100.00
44934;BME280;30667;43.614;1.442;2023-05-11T03:43:43;100344.88;;;10.73;100.00
44934;BME280;30667;43.614;1.442;2023-05-11T03:46:11;100347.31;;;10.75;100.00
44934;BME280;30667;43.614;1.442;2023-05-11T03:48:39;100344.09;;;10.72;100.00
44934;BME280;30667;43.614;1.442;2023-05-11T03:51:05;100347.06;;;10.71;100.00
44934;BME280;30667;43.614;1.442;2023-05-11T03:53:32;100342.72;;;10.70;100.00
44934;BME280;30667;43.614;1.442;2023-05-11T03:55:57;100342.44;;;10.71;100.00
44934;BME280;30667;43.614;1.442;2023-05-11T03:58:23;100330.56;;;10.72;100.00
44934;BME280;30667;43.614;1.442;2023-05-11T04:00:49;100334.59;;;10.70;100.00
44934;BME280;30667;43.614;1.442;2023-05-11T04:03:15;100337.56;;;10.73;100.00
44934;BME280;30667;43.614;1.442;2023-05-11T04:05:40;100339.19;;;10.75;100.00
44934;BME280;30667;43.614;1.442;2023-05-11T04:08:06;100337.88;;;10.77;100.00
44934;BME280;30667;43.614;1.442;2023-05-11T04:10:31;100333.25;;;10.83;100.00
44934;BME280;30667;43.614;1.442;2023-05-11T04:12:57;100334.06;;;10.83;100.00
44934;BME280;30667;43.614;1.442;2023-05-11T04:15:22;100331.06;;;10.85;100.00
44934;BME280;30667;43.614;1.442;2023-05-11T04:17:48;100327.56;;;10.84;100.00
44934;BME280;30667;43.614;1.442;2023-05-11T04:20:13;100330.00;;;10.86;100.00
44934;BME280;30667;43.614;1.442;2023-05-11T04:22:39;100326.50;;;10.85;100.00
44934;BME280;30667;43.614;1.442;2023-05-11T04:25:04;100325.13;;;10.83;100.00
44934;BME280;30667;43.614;1.442;2023-05-11T04:27:33;100332.97;;;10.84;100.00
44934;BME280;30667;43.614;1.442;2023-05-11T04:30:00;100323.78;;;10.85;100.00
44934;BME280;30667;43.614;1.442;2023-05-11T04:32:25;100331.06;;;10.85;100.00
44934;BME280;30667;43.614;1.442;2023-05-11T04:34:50;100324.06;;;10.84;100.00
44934;BME280;30667;43.614;1.442;2023-05-11T04:37:16;100331.63;;;10.82;100.00
44934;BME280;30667;43.614;1.442;2023-05-11T04:39:41;100323.78;;;10.80;100.00
44934;BME280;30667;43.614;1.442;2023-05-11T04:42:07;100324.06;;;10.79;100.00
44934;BME280;30667;43.614;1.442;2023-05-11T04:44:32;100320.00;;;10.76;100.00
44934;BME280;30667;43.614;1.442;2023-05-11T04:46:57;100322.97;;;10.75;100.00
44934;BME280;30667;43.614;1.442;2023-05-11T04:49:23;100325.41;;;10.76;100.00
44934;BME280;30667;43.614;1.442;2023-05-11T04:51:48;100324.06;;;10.79;100.00
44934;BME280;30667;43.614;1.442;2023-05-11T04:54:14;100315.09;;;10.78;100.00
44934;BME280;30667;43.614;1.442;2023-05-11T04:56:39;100320.81;;;10.82;100.00
44934;BME280;30667;43.614;1.442;2023-05-11T04:59:08;100332.16;;;10.84;100.00
44934;BME280;30667;43.614;1.442;2023-05-11T05:01:34;100324.84;;;10.84;100.00
44934;BME280;30667;43.614;1.442;2023-05-11T05:04:00;100330.53;;;10.88;100.00
44934;BME280;30667;43.614;1.442;2023-05-11T05:06:26;100327.03;;;10.87;100.00
44934;BME280;30667;43.614;1.442;2023-05-11T05:08:51;100329.44;;;10.89;100.00
44934;BME280;30667;43.614;1.442;2023-05-11T05:11:17;100325.41;;;10.92;100.00
44934;BME280;30667;43.614;1.442;2023-05-11T05:13:42;100325.69;;;10.90;100.00
44934;BME280;30667;43.614;1.442;2023-05-11T05:16:08;100323.78;;;10.90;100.00
44934;BME280;30667;43.614;1.442;2023-05-11T05:18:33;100332.16;;;10.94;100.00
44934;BME280;30667;43.614;1.442;2023-05-11T05:20:59;100333.78;;;10.95;100.00
44934;BME280;30667;43.614;1.442;2023-05-11T05:23:24;100330.53;;;10.98;100.00
44934;BME280;30667;43.614;1.442;2023-05-11T05:25:50;100331.06;;;11.00;100.00
44934;BME280;30667;43.614;1.442;2023-05-11T05:28:15;100332.44;;;10.98;100.00
44934;BME280;30667;43.614;1.442;2023-05-11T05:30:40;100331.88;;;11.01;100.00
44934;BME280;30667;43.614;1.442;2023-05-11T05:33:06;100334.31;;;11.02;100.00
44934;BME280;30667;43.614;1.442;2023-05-11T05:35:31;100338.66;;;11.03;100.00
44934;BME280;30667;43.614;1.442;2023-05-11T05:37:57;100343.78;;;11.10;100.00
44934;BME280;30667;43.614;1.442;2023-05-11T05:40:22;100335.66;;;11.10;100.00
44934;BME280;30667;43.614;1.442;2023-05-11T05:42:47;100331.06;;;11.16;100.00
44934;BME280;30667;43.614;1.442;2023-05-11T05:45:13;100333.50;;;11.17;100.00
44934;BME280;30667;43.614;1.442;2023-05-11T05:47:38;100333.38;;;11.53;100.00
44934;BME280;30667;43.614;1.442;2023-05-11T05:50:05;100337.78;;;11.34;100.00
44934;BME280;30667;43.614;1.442;2023-05-11T05:52:31;100334.00;;;11.30;100.00
44934;BME280;30667;43.614;1.442;2023-05-11T05:54:56;100337.75;;;11.39;100.00
44934;BME280;30667;43.614;1.442;2023-05-11T05:57:22;100336.94;;;11.43;100.00
44934;BME280;30667;43.614;1.442;2023-05-11T05:59:47;100343.97;;;11.50;100.00
44934;BME280;30667;43.614;1.442;2023-05-11T06:02:12;100347.50;;;11.55;100.00
44934;BME280;30667;43.614;1.442;2023-05-11T06:04:38;100344.72;;;11.66;100.00
44934;BME280;30667;43.614;1.442;2023-05-11T06:07:04;100343.38;;;11.68;100.00
44934;BME280;30667;43.614;1.442;2023-05-11T06:09:29;100337.44;;;11.61;100.00
44934;BME280;30667;43.614;1.442;2023-05-11T06:11:54;100342.03;;;11.66;100.00
44934;BME280;30667;43.614;1.442;2023-05-11T06:14:21;100342.28;;;11.64;100.00
44934;BME280;30667;43.614;1.442;2023-05-11T06:16:47;100337.41;;;11.66;100.00
44934;BME280;30667;43.614;1.442;2023-05-11T06:19:12;100334.13;;;11.74;100.00
44934;BME280;30667;43.614;1.442;2023-05-11T06:21:38;100341.72;;;11.72;100.00
44934;BME280;30667;43.614;1.442;2023-05-11T06:24:06;100347.41;;;11.76;100.00
44934;BME280;30667;43.614;1.442;2023-05-11T06:26:31;100345.78;;;11.75;100.00
44934;BME280;30667;43.614;1.442;2023-05-11T06:28:56;100337.66;;;11.75;100.00
44934;BME280;30667;43.614;1.442;2023-05-11T06:31:22;100339.25;;;11.81;100.00
44934;BME280;30667;43.614;1.442;2023-05-11T06:33:48;100340.31;;;11.85;100.00
44934;BME280;30667;43.614;1.442;2023-05-11T06:36:14;100334.59;;;11.87;100.00
44934;BME280;30667;43.614;1.442;2023-05-11T06:38:39;100340.00;;;12.02;100.00
44934;BME280;30667;43.614;1.442;2023-05-11T06:41:05;100338.09;;;12.03;100.00
44934;BME280;30667;43.614;1.442;2023-05-11T06:43:31;100329.06;;;12.12;100.00
44934;BME280;30667;43.614;1.442;2023-05-11T06:45:56;100338.84;;;12.13;100.00
44934;BME280;30667;43.614;1.442;2023-05-11T06:48:22;100342.69;;;12.07;100.00
44934;BME280;30667;43.614;1.442;2023-05-11T06:50:48;100342.69;;;12.07;100.00
44934;BME280;30667;43.614;1.442;2023-05-11T06:53:13;100338.09;;;12.08;100.00
44934;BME280;30667;43.614;1.442;2023-05-11T06:55:41;100344.31;;;12.08;100.00
44934;BME280;30667;43.614;1.442;2023-05-11T06:58:06;100339.19;;;12.02;100.00
44934;BME280;30667;43.614;1.442;2023-05-11T07:00:32;100345.66;;;12.06;100.00
44934;BME280;30667;43.614;1.442;2023-05-11T07:02:57;100346.22;;;12.08;100.00
44934;BME280;30667;43.614;1.442;2023-05-11T07:05:22;100343.50;;;12.08;100.00
44934;BME280;30667;43.614;1.442;2023-05-11T07:07:48;100341.31;;;12.10;100.00
44934;BME280;30667;43.614;1.442;2023-05-11T07:10:13;100340.22;;;12.11;100.00
44934;BME280;30667;43.614;1.442;2023-05-11T07:12:39;100344.03;;;12.10;100.00
44934;BME280;30667;43.614;1.442;2023-05-11T07:15:04;100341.06;;;12.06;100.00
44934;BME280;30667;43.614;1.442;2023-05-11T07:17:30;100346.72;;;12.15;100.00
44934;BME280;30667;43.614;1.442;2023-05-11T07:19:56;100340.13;;;12.26;100.00
44934;BME280;30667;43.614;1.442;2023-05-11T07:22:21;100342.81;;;12.31;100.00
44934;BME280;30667;43.614;1.442;2023-05-11T07:24:46;100335.22;;;12.33;100.00
44934;BME280;30667;43.614;1.442;2023-05-11T07:27:12;100342.19;;;12.40;100.00
44934;BME280;30667;43.614;1.442;2023-05-11T07:29:38;100336.16;;;12.53;100.00
44934;BME280;30667;43.614;1.442;2023-05-11T07:32:04;100335.59;;;12.56;100.00
44934;BME280;30667;43.614;1.442;2023-05-11T07:34:29;100333.44;;;12.53;100.00
44934;BME280;30667;43.614;1.442;2023-05-11T07:36:55;100332.38;;;12.49;100.00
44934;BME280;30667;43.614;1.442;2023-05-11T07:39:20;100332.94;;;12.51;100.00
44934;BME280;30667;43.614;1.442;2023-05-11T07:41:46;100333.22;;;12.49;100.00
44934;BME280;30667;43.614;1.442;2023-05-11T07:44:11;100327.72;;;12.54;100.00
44934;BME280;30667;43.614;1.442;2023-05-11T07:46:37;100326.09;;;12.53;100.00
44934;BME280;30667;43.614;1.442;2023-05-11T07:49:02;100321.94;;;12.66;100.00
44934;BME280;30667;43.614;1.442;2023-05-11T07:51:28;100323.47;;;12.78;100.00
44934;BME280;30667;43.614;1.442;2023-05-11T07:53:53;100322.09;;;12.80;100.00
44934;BME280;30667;43.614;1.442;2023-05-11T07:56:19;100317.47;;;12.81;100.00
44934;BME280;30667;43.614;1.442;2023-05-11T07:58:44;100325.25;;;12.93;100.00
44934;BME280;30667;43.614;1.442;2023-05-11T08:01:10;100324.13;;;12.99;100.00
44934;BME280;30667;43.614;1.442;2023-05-11T08:03:35;100316.13;;;13.07;100.00
44934;BME280;30667;43.614;1.442;2023-05-11T08:06:01;100317.94;;;13.17;100.00
44934;BME280;30667;43.614;1.442;2023-05-11T08:08:27;100309.66;;;13.33;100.00
44934;BME280;30667;43.614;1.442;2023-05-11T08:10:54;100310.38;;;13.43;100.00
44934;BME280;30667;43.614;1.442;2023-05-11T08:13:20;100306.09;;;13.32;100.00
44934;BME280;30667;43.614;1.442;2023-05-11T08:15:45;100299.50;;;13.14;100.00
44934;BME280;30667;43.614;1.442;2023-05-11T08:18:10;100298.19;;;13.12;100.00
44934;BME280;30667;43.614;1.442;2023-05-11T08:20:36;100296.72;;;13.19;100.00
44934;BME280;30667;43.614;1.442;2023-05-11T08:23:03;100291.34;;;13.43;100.00
44934;BME280;30667;43.614;1.442;2023-05-11T08:25:28;100286.53;;;13.78;100.00
44934;BME280;30667;43.614;1.442;2023-05-11T08:27:54;100286.19;;;13.85;100.00
44934;BME280;30667;43.614;1.442;2023-05-11T08:30:19;100286.69;;;13.68;100.00
44934;BME280;30667;43.614;1.442;2023-05-11T08:32:44;100300.88;;;13.41;100.00
44934;BME280;30667;43.614;1.442;2023-05-11T08:35:11;100309.94;;;12.72;100.00
44934;BME280;30667;43.614;1.442;2023-05-11T08:37:37;100307.28;;;12.28;100.00
44934;BME280;30667;43.614;1.442;2023-05-11T08:40:03;100309.59;;;12.05;100.00
44934;BME280;30667;43.614;1.442;2023-05-11T08:42:32;100302.06;;;11.97;100.00
44934;BME280;30667;43.614;1.442;2023-05-11T08:45:00;100306.13;;;11.94;100.00
44934;BME280;30667;43.614;1.442;2023-05-11T08:47:27;100299.06;;;11.98;100.00
44934;BME280;30667;43.614;1.442;2023-05-11T08:49:53;100302.56;;;12.04;100.00
44934;BME280;30667;43.614;1.442;2023-05-11T08:52:18;100296.91;;;11.95;100.00
44934;BME280;30667;43.614;1.442;2023-05-11T08:54:45;100298.53;;;11.96;100.00
44934;BME280;30667;43.614;1.442;2023-05-11T08:57:12;100286.84;;;12.01;100.00
44934;BME280;30667;43.614;1.442;2023-05-11T08:59:38;100286.19;;;12.20;100.00
44934;BME280;30667;43.614;1.442;2023-05-11T09:02:05;100277.63;;;12.42;100.00
44934;BME280;30667;43.614;1.442;2023-05-11T09:04:31;100275.38;;;12.54;100.00
44934;BME280;30667;43.614;1.442;2023-05-11T09:06:57;100275.81;;;12.61;100.00
44934;BME280;30667;43.614;1.442;2023-05-11T09:09:23;100286.13;;;12.64;100.00
44934;BME280;30667;43.614;1.442;2023-05-11T09:11:49;100272.78;;;12.68;100.00
44934;BME280;30667;43.614;1.442;2023-05-11T09:14:14;100264.28;;;12.75;100.00
44934;BME280;30667;43.614;1.442;2023-05-11T09:16:40;100258.00;;;12.79;100.00
44934;BME280;30667;43.614;1.442;2023-05-11T09:19:05;100256.25;;;12.94;100.00
44934;BME280;30667;43.614;1.442;2023-05-11T09:21:31;100273.88;;;12.96;100.00
44934;BME280;30667;43.614;1.442;2023-05-11T09:23:57;100267.25;;;13.07;100.00
44934;BME280;30667;43.614;1.442;2023-05-11T09:26:26;100271.53;;;13.14;100.00
44934;BME280;30667;43.614;1.442;2023-05-11T09:28:58;100257.88;;;13.19;100.00
44934;BME280;30667;43.614;1.442;2023-05-11T09:31:44;100267.25;;;13.07;100.00
44934;BME280;30667;43.614;1.442;2023-05-11T09:34:18;100258.09;;;12.98;100.00
44934;BME280;30667;43.614;1.442;2023-05-11T09:36:46;100265.31;;;13.08;100.00
44934;BME280;30667;43.614;1.442;2023-05-11T09:39:12;100256.94;;;13.29;100.00
44934;BME280;30667;43.614;1.442;2023-05-11T09:41:38;100259.88;;;13.37;100.00
44934;BME280;30667;43.614;1.442;2023-05-11T09:44:12;100253.22;;;13.49;100.00
44934;BME280;30667;43.614;1.442;2023-05-11T09:46:39;100263.03;;;13.44;100.00
44934;BME280;30667;43.614;1.442;2023-05-11T09:49:05;100250.94;;;13.32;100.00
44934;BME280;30667;43.614;1.442;2023-05-11T09:51:33;100246.88;;;13.34;100.00
44934;BME280;30667;43.614;1.442;2023-05-11T09:53:59;100252.34;;;13.29;100.00
44934;BME280;30667;43.614;1.442;2023-05-11T09:56:45;100249.59;;;13.34;100.00
44934;BME280;30667;43.614;1.442;2023-05-11T09:59:13;100249.28;;;13.36;100.00
44934;BME280;30667;43.614;1.442;2023-05-11T10:01:39;100233.53;;;13.57;100.00
44934;BME280;30667;43.614;1.442;2023-05-11T10:04:04;100242.50;;;13.57;100.00
44934;BME280;30667;43.614;1.442;2023-05-11T10:09:10;100233.59;;;13.52;100.00
44934;BME280;30667;43.614;1.442;2023-05-11T10:11:37;100236.19;;;13.62;100.00
44934;BME280;30667;43.614;1.442;2023-05-11T10:14:04;100229.06;;;13.66;100.00
44934;BME280;30667;43.614;1.442;2023-05-11T10:16:30;100226.41;;;13.61;100.00
44934;BME280;30667;43.614;1.442;2023-05-11T10:18:55;100224.63;;;13.51;100.00
44934;BME280;30667;43.614;1.442;2023-05-11T10:21:21;100224.34;;;13.53;100.00
44934;BME280;30667;43.614;1.442;2023-05-11T10:23:47;100221.13;;;13.70;100.00
44934;BME280;30667;43.614;1.442;2023-05-11T10:26:13;100211.63;;;13.86;100.00
44934;BME280;30667;43.614;1.442;2023-05-11T10:28:39;100213.19;;;13.92;100.00
44934;BME280;30667;43.614;1.442;2023-05-11T10:31:05;100211.47;;;14.15;100.00
44934;BME280;30667;43.614;1.442;2023-05-11T10:33:33;100212.22;;;14.02;100.00
44934;BME280;30667;43.614;1.442;2023-05-11T10:35:58;100207.88;;;14.20;100.00
44934;BME280;30667;43.614;1.442;2023-05-11T10:38:24;100202.44;;;14.34;100.00
44934;BME280;30667;43.614;1.442;2023-05-11T10:40:50;100203.44;;;14.24;100.00
44934;BME280;30667;43.614;1.442;2023-05-11T10:47:11;100195.41;;;14.33;100.00
44934;BME280;30667;43.614;1.442;2023-05-11T10:57:57;100185.31;;;14.33;100.00
44934;BME280;30667;43.614;1.442;2023-05-11T11:03:23;100186.16;;;14.48;100.00
44934;BME280;30667;43.614;1.442;2023-05-11T11:05:49;100183.22;;;14.44;100.00
44934;BME280;30667;43.614;1.442;2023-05-11T11:08:14;100173.03;;;14.50;100.00
44934;BME280;30667;43.614;1.442;2023-05-11T11:10:42;100185.16;;;14.58;100.00
44934;BME280;30667;43.614;1.442;2023-05-11T11:13:13;100175.56;;;14.46;100.00
44934;BME280;30667;43.614;1.442;2023-05-11T11:18:22;100177.66;;;14.35;100.00
44934;BME280;30667;43.614;1.442;2023-05-11T11:20:52;100178.25;;;14.32;100.00
44934;BME280;30667;43.614;1.442;2023-05-11T11:23:43;100179.13;;;14.28;100.00
44934;BME280;30667;43.614;1.442;2023-05-11T11:26:10;100172.25;;;14.16;100.00
44934;BME280;30667;43.614;1.442;2023-05-11T11:31:36;100178.97;;;14.05;100.00
44934;BME280;30667;43.614;1.442;2023-05-11T11:39:27;100161.91;;;14.65;100.00
44934;BME280;30667;43.614;1.442;2023-05-11T11:42:04;100157.25;;;14.66;100.00
44934;BME280;30667;43.614;1.442;2023-05-11T11:44:32;100153.53;;;14.62;100.00
44934;BME280;30667;43.614;1.442;2023-05-11T11:49:47;100153.13;;;14.68;100.00
44934;BME280;30667;43.614;1.442;2023-05-11T11:52:33;100162.53;;;14.76;100.00
44934;BME280;30667;43.614;1.442;2023-05-11T11:55:00;100156.97;;;14.67;100.00
44934;BME280;30667;43.614;1.442;2023-05-11T12:02:32;100148.41;;;14.88;100.00
44934;BME280;30667;43.614;1.442;2023-05-11T12:05:17;100140.13;;;15.07;100.00
44934;BME280;30667;43.614;1.442;2023-05-11T12:07:45;100145.97;;;15.00;100.00
44934;BME280;30667;43.614;1.442;2023-05-11T12:10:21;100145.25;;;14.95;100.00
44934;BME280;30667;43.614;1.442;2023-05-11T12:12:48;100150.44;;;14.82;100.00
44934;BME280;30667;43.614;1.442;2023-05-11T12:15:30;100141.53;;;14.91;100.00
44934;BME280;30667;43.614;1.442;2023-05-11T12:17:58;100146.88;;;14.96;100.00
44934;BME280;30667;43.614;1.442;2023-05-11T12:20:27;100133.66;;;15.03;100.00
44934;BME280;30667;43.614;1.442;2023-05-11T12:22:53;100155.97;;;15.05;100.00
44934;BME280;30667;43.614;1.442;2023-05-11T12:25:19;100155.34;;;14.94;100.00
44934;BME280;30667;43.614;1.442;2023-05-11T12:27:55;100151.13;;;14.88;100.00
44934;BME280;30667;43.614;1.442;2023-05-11T12:30:29;100151.31;;;14.92;100.00
44934;BME280;30667;43.614;1.442;2023-05-11T12:32:55;100150.22;;;14.93;100.00
44934;BME280;30667;43.614;1.442;2023-05-11T12:35:26;100132.53;;;15.04;100.00
44934;BME280;30667;43.614;1.442;2023-05-11T12:37:53;100134.97;;;15.05;100.00
44934;BME280;30667;43.614;1.442;2023-05-11T12:40:18;100131.50;;;15.14;100.00
44934;BME280;30667;43.614;1.442;2023-05-11T12:42:52;100144.94;;;15.10;100.00
44934;BME280;30667;43.614;1.442;2023-05-11T12:45:19;100147.91;;;15.00;100.00
44934;BME280;30667;43.614;1.442;2023-05-11T12:47:49;100152.03;;;14.97;100.00
44934;BME280;30667;43.614;1.442;2023-05-11T12:50:16;100149.91;;;14.94;100.00
44934;BME280;30667;43.614;1.442;2023-05-11T12:52:41;100149.50;;;15.01;100.00
44934;BME280;30667;43.614;1.442;2023-05-11T12:55:07;100137.88;;;15.09;100.00
44934;BME280;30667;43.614;1.442;2023-05-11T12:57:35;100142.53;;;15.08;100.00
44934;BME280;30667;43.614;1.442;2023-05-11T13:00:15;100144.94;;;15.10;100.00
44934;BME280;30667;43.614;1.442;2023-05-11T13:02:50;100140.72;;;15.18;100.00
44934;BME280;30667;43.614;1.442;2023-05-11T13:05:17;100135.84;;;15.29;100.00
44934;BME280;30667;43.614;1.442;2023-05-11T13:07:44;100138.78;;;15.18;100.00
44934;BME280;30667;43.614;1.442;2023-05-11T13:10:11;100127.38;;;15.16;100.00
44934;BME280;30667;43.614;1.442;2023-05-11T13:12:50;100125.88;;;15.24;100.00
44934;BME280;30667;43.614;1.442;2023-05-11T13:15:16;100125.50;;;15.39;100.00
44934;BME280;30667;43.614;1.442;2023-05-11T13:17:43;100114.91;;;15.38;100.00
44934;BME280;30667;43.614;1.442;2023-05-11T13:20:22;100115.78;;;15.47;100.00
44934;BME280;30667;43.614;1.442;2023-05-11T13:22:50;100112.84;;;15.57;100.00
44934;BME280;30667;43.614;1.442;2023-05-11T13:25:26;100106.06;;;15.55;100.00
44934;BME280;30667;43.614;1.442;2023-05-11T13:27:51;100100.75;;;15.50;100.00
44934;BME280;30667;43.614;1.442;2023-05-11T13:30:17;100099.00;;;15.54;100.00